Time,TemperatureF,DewpointF,PressureIn,WindDirection,WindDirectionDegrees,WindSpeedMPH,WindSpeedGustMPH,Humidity,HourlyPrecipIn,Conditions,Clouds,dailyrainin,SoftwareType,DateUTC
2013-08-19 00:01:00,55.0,52.5,29.84,ENE,68,0.0,0.0,91,0.00,,,0.00,Weather View 32 v70,2013-08-19 08:01:00,
2013-08-19 00:06:00,55.0,52.5,29.84,NE,45,0.0,0.0,91,0.00,,,0.00,Weather View 32 v70,2013-08-19 08:06:00,
2013-08-19 00:11:00,55.0,52.5,29.84,NE,45,0.0,0.0,91,0.00,,,0.00,Weather View 32 v70,2013-08-19 08:11:00,
2013-08-19 00:16:00,55.0,52.5,29.84,NNE,22,0.0,0.0,91,0.00,,,0.00,Weather View 32 v70,2013-08-19 08:16:00,
2013-08-19 00:21:00,55.0,52.5,29.84,North,0,0.0,0.0,91,0.00,,,0.00,Weather View 32 v70,2013-08-19 08:21:00,
2013-08-19 00:26:00,55.0,52.5,29.84,WSW,248,0.0,0.0,91,0.00,,,0.00,Weather View 32 v70,2013-08-19 08:26:00,
2013-08-19 00:31:00,54.9,52.3,29.84,WSW,248,0.0,0.0,91,0.00,,,0.00,Weather View 32 v70,2013-08-19 08:31:00,
2013-08-19 00:36:00,54.9,52.3,29.84,South,180,0.0,0.0,91,0.00,,,0.00,Weather View 32 v70,2013-08-19 08:36:00,
2013-08-19 00:41:00,54.9,52.3,29.84,South,180,0.0,0.0,91,0.00,,,0.00,Weather View 32 v70,2013-08-19 08:41:00,
2013-08-19 00:46:00,54.7,52.1,29.84,WSW,248,0.0,0.0,91,0.00,,,0.00,Weather View 32 v70,2013-08-19 08:46:00,
2013-08-19 00:51:00,54.7,52.4,29.84,WNW,292,0.0,0.0,92,0.00,,,0.00,Weather View 32 v70,2013-08-19 08:51:00,
2013-08-19 00:56:00,54.7,52.4,29.84,WNW,292,0.0,0.0,92,0.00,,,0.00,Weather View 32 v70,2013-08-19 08:56:00,
2013-08-19 01:01:00,54.9,52.6,29.84,WNW,292,0.0,0.0,92,0.00,,,0.00,Weather View 32 v70,2013-08-19 09:01:00,
2013-08-19 01:06:00,54.9,52.6,29.84,WNW,292,0.0,0.0,92,0.00,,,0.00,Weather View 32 v70,2013-08-19 09:06:00,
2013-08-19 01:11:00,54.5,52.2,29.84,SSE,158,0.0,0.0,92,0.00,,,0.00,Weather View 32 v70,2013-08-19 09:11:00,
2013-08-19 01:16:00,54.5,52.2,29.84,SE,135,0.0,0.0,92,0.00,,,0.00,Weather View 32 v70,2013-08-19 09:16:00,
2013-08-19 01:21:00,54.5,52.2,29.84,South,180,0.0,0.0,92,0.00,,,0.00,Weather View 32 v70,2013-08-19 09:21:00,
2013-08-19 01:26:00,54.3,52.0,29.84,South,180,0.0,0.0,92,0.00,,,0.00,Weather View 32 v70,2013-08-19 09:26:00,
2013-08-19 01:31:00,54.5,52.2,29.84,South,180,0.0,0.0,92,0.00,,,0.00,Weather View 32 v70,2013-08-19 09:31:00,
2013-08-19 01:36:00,54.3,52.0,29.84,South,180,0.0,0.0,92,0.00,,,0.00,Weather View 32 v70,2013-08-19 09:36:00,
2013-08-19 01:41:00,54.1,51.6,29.84,South,180,0.0,0.0,91,0.00,,,0.00,Weather View 32 v70,2013-08-19 09:41:00,
2013-08-19 01:46:00,54.1,51.9,29.84,SSE,158,0.0,0.0,92,0.00,,,0.00,Weather View 32 v70,2013-08-19 09:46:00,
2013-08-19 01:51:00,54.1,51.9,29.84,SE,135,0.0,0.0,92,0.00,,,0.00,Weather View 32 v70,2013-08-19 09:51:00,
2013-08-19 01:56:00,54.1,51.9,29.84,SE,135,0.0,0.0,92,0.00,,,0.00,Weather View 32 v70,2013-08-19 09:56:00,
2013-08-19 02:01:00,54.0,51.7,29.84,SE,135,0.0,0.0,92,0.00,,,0.00,Weather View 32 v70,2013-08-19 10:01:00,
2013-08-19 02:06:00,54.1,51.9,29.84,SE,135,0.0,0.0,92,0.00,,,0.00,Weather View 32 v70,2013-08-19 10:06:00,
2013-08-19 02:11:00,54.1,51.9,29.84,SE,135,0.0,0.0,92,0.00,,,0.00,Weather View 32 v70,2013-08-19 10:11:00,
2013-08-19 02:16:00,54.3,52.0,29.84,SE,135,0.0,0.0,92,0.00,,,0.00,Weather View 32 v70,2013-08-19 10:16:00,
2013-08-19 02:21:00,54.3,52.0,29.84,SE,135,0.0,0.0,92,0.00,,,0.00,Weather View 32 v70,2013-08-19 10:21:00,
2013-08-19 02:26:00,54.5,52.2,29.84,West,270,0.0,0.0,92,0.00,,,0.00,Weather View 32 v70,2013-08-19 10:26:00,
2013-08-19 02:31:00,54.3,52.0,29.84,WSW,248,0.0,0.0,92,0.00,,,0.00,Weather View 32 v70,2013-08-19 10:31:00,
2013-08-19 02:36:00,54.3,52.0,29.84,SSW,202,0.0,0.0,92,0.00,,,0.00,Weather View 32 v70,2013-08-19 10:36:00,
2013-08-19 02:41:00,54.5,52.2,29.84,SE,135,0.0,0.0,92,0.00,,,0.00,Weather View 32 v70,2013-08-19 10:41:00,
2013-08-19 02:46:00,54.3,52.0,29.84,SSE,158,0.0,0.0,92,0.00,,,0.00,Weather View 32 v70,2013-08-19 10:46:00,
2013-08-19 02:51:00,54.3,52.3,29.84,SSE,158,0.0,0.0,93,0.00,,,0.00,Weather View 32 v70,2013-08-19 10:51:00,
2013-08-19 02:56:00,54.3,52.3,29.84,SE,135,0.0,0.0,93,0.00,,,0.00,Weather View 32 v70,2013-08-19 10:56:00,
2013-08-19 03:01:00,54.3,52.0,29.84,SW,225,0.0,0.0,92,0.00,,,0.00,Weather View 32 v70,2013-08-19 11:01:00,
2013-08-19 03:06:00,54.5,52.2,29.84,ENE,68,0.0,0.0,92,0.00,,,0.00,Weather View 32 v70,2013-08-19 11:06:00,
2013-08-19 03:11:00,54.5,52.2,29.84,ENE,68,0.0,0.0,92,0.00,,,0.00,Weather View 32 v70,2013-08-19 11:11:00,
2013-08-19 03:16:00,54.3,52.0,29.84,South,180,0.0,0.0,92,0.00,,,0.00,Weather View 32 v70,2013-08-19 11:16:00,
2013-08-19 03:21:00,54.3,52.0,29.84,West,270,0.0,0.0,92,0.00,,,0.00,Weather View 32 v70,2013-08-19 11:21:00,
2013-08-19 03:26:00,54.3,52.0,29.84,SW,225,0.0,0.0,92,0.00,,,0.00,Weather View 32 v70,2013-08-19 11:26:00,
2013-08-19 03:31:00,54.1,52.2,29.84,South,180,0.0,0.0,93,0.00,,,0.00,Weather View 32 v70,2013-08-19 11:31:00,
2013-08-19 03:36:00,54.1,52.2,29.84,South,180,0.0,0.0,93,0.00,,,0.00,Weather View 32 v70,2013-08-19 11:36:00,
2013-08-19 03:41:00,54.1,52.2,29.84,SW,225,0.0,0.0,93,0.00,,,0.00,Weather View 32 v70,2013-08-19 11:41:00,
2013-08-19 03:46:00,54.1,52.2,29.83,SW,225,0.0,0.0,93,0.00,,,0.00,Weather View 32 v70,2013-08-19 11:46:00,
2013-08-19 03:51:00,54.1,52.2,29.83,SW,225,0.0,0.0,93,0.00,,,0.00,Weather View 32 v70,2013-08-19 11:51:00,
2013-08-19 03:56:00,54.1,52.2,29.83,SW,225,0.0,0.0,93,0.00,,,0.00,Weather View 32 v70,2013-08-19 11:56:00,
2013-08-19 04:01:00,54.1,52.2,29.83,SW,225,0.0,0.0,93,0.00,,,0.00,Weather View 32 v70,2013-08-19 12:01:00,
2013-08-19 04:06:00,54.1,52.2,29.84,SW,225,0.0,0.0,93,0.00,,,0.00,Weather View 32 v70,2013-08-19 12:06:00,
2013-08-19 04:11:00,54.1,52.2,29.84,SE,135,0.0,0.0,93,0.00,,,0.00,Weather View 32 v70,2013-08-19 12:11:00,
2013-08-19 04:16:00,54.0,51.7,29.84,South,180,0.0,0.0,92,0.00,,,0.00,Weather View 32 v70,2013-08-19 12:16:00,
2013-08-19 04:21:00,54.1,52.2,29.84,SSE,158,0.0,0.0,93,0.00,,,0.00,Weather View 32 v70,2013-08-19 12:21:00,
2013-08-19 04:26:00,54.1,52.2,29.83,South,180,0.0,0.0,93,0.00,,,0.00,Weather View 32 v70,2013-08-19 12:26:00,
2013-08-19 04:31:00,54.0,51.7,29.83,South,180,0.0,0.0,92,0.00,,,0.00,Weather View 32 v70,2013-08-19 12:31:00,
2013-08-19 04:36:00,54.1,52.2,29.83,South,180,0.0,0.0,93,0.00,,,0.00,Weather View 32 v70,2013-08-19 12:36:00,
2013-08-19 04:41:00,54.1,52.2,29.83,South,180,0.0,0.0,93,0.00,,,0.00,Weather View 32 v70,2013-08-19 12:41:00,
2013-08-19 04:46:00,54.1,52.2,29.84,South,180,0.0,0.0,93,0.00,,,0.00,Weather View 32 v70,2013-08-19 12:46:00,
2013-08-19 04:51:00,54.1,52.2,29.84,South,180,0.0,0.0,93,0.00,,,0.00,Weather View 32 v70,2013-08-19 12:51:00,
2013-08-19 04:56:00,54.3,52.3,29.84,South,180,0.0,0.0,93,0.00,,,0.00,Weather View 32 v70,2013-08-19 12:56:00,
2013-08-19 05:01:00,54.3,52.3,29.84,South,180,0.0,0.0,93,0.00,,,0.00,Weather View 32 v70,2013-08-19 13:01:00,
2013-08-19 05:06:00,54.3,52.3,29.83,SW,225,0.0,0.0,93,0.00,,,0.00,Weather View 32 v70,2013-08-19 13:06:00,
2013-08-19 05:11:00,54.5,52.5,29.83,West,270,0.0,0.0,93,0.00,,,0.00,Weather View 32 v70,2013-08-19 13:11:00,
2013-08-19 05:16:00,54.3,52.3,29.83,West,270,0.0,0.0,93,0.00,,,0.00,Weather View 32 v70,2013-08-19 13:16:00,
2013-08-19 05:21:00,54.3,52.3,29.83,West,270,0.0,0.0,93,0.00,,,0.00,Weather View 32 v70,2013-08-19 13:21:00,
2013-08-19 05:26:00,54.3,52.3,29.83,West,270,0.0,0.0,93,0.00,,,0.00,Weather View 32 v70,2013-08-19 13:26:00,
2013-08-19 05:31:00,54.3,52.3,29.83,West,270,0.0,0.0,93,0.00,,,0.00,Weather View 32 v70,2013-08-19 13:31:00,
2013-08-19 05:36:00,54.3,52.3,29.83,West,270,0.0,0.0,93,0.00,,,0.00,Weather View 32 v70,2013-08-19 13:36:00,
2013-08-19 05:41:00,54.3,52.3,29.83,West,270,0.0,0.0,93,0.00,,,0.00,Weather View 32 v70,2013-08-19 13:41:00,
2013-08-19 05:46:00,54.3,52.3,29.83,SSE,158,0.0,0.0,93,0.00,,,0.00,Weather View 32 v70,2013-08-19 13:46:00,
2013-08-19 05:51:00,54.3,52.3,29.83,South,180,0.0,0.0,93,0.00,,,0.00,Weather View 32 v70,2013-08-19 13:51:00,
2013-08-19 05:56:00,54.3,52.3,29.83,South,180,0.0,0.0,93,0.00,,,0.00,Weather View 32 v70,2013-08-19 13:56:00,
2013-08-19 06:01:00,54.5,52.5,29.83,ESE,112,0.0,0.0,93,0.00,,,0.00,Weather View 32 v70,2013-08-19 14:01:00,
2013-08-19 06:06:00,54.5,52.5,29.82,South,180,0.0,0.0,93,0.00,,,0.00,Weather View 32 v70,2013-08-19 14:06:00,
2013-08-19 06:11:00,54.5,52.5,29.82,South,180,0.0,0.0,93,0.00,,,0.00,Weather View 32 v70,2013-08-19 14:11:00,
2013-08-19 06:16:00,54.5,52.2,29.82,SE,135,0.0,0.0,92,0.00,,,0.00,Weather View 32 v70,2013-08-19 14:16:00,
2013-08-19 06:21:00,54.3,52.0,29.82,South,180,0.0,0.0,92,0.00,,,0.00,Weather View 32 v70,2013-08-19 14:21:00,
2013-08-19 06:26:00,54.5,52.2,29.82,SSE,158,0.0,0.0,92,0.00,,,0.00,Weather View 32 v70,2013-08-19 14:26:00,
2013-08-19 06:31:00,54.5,52.2,29.82,South,180,0.0,0.0,92,0.00,,,0.00,Weather View 32 v70,2013-08-19 14:31:00,
2013-08-19 06:36:00,54.3,52.3,29.82,South,180,0.0,0.0,93,0.00,,,0.00,Weather View 32 v70,2013-08-19 14:36:00,
2013-08-19 06:41:00,54.3,52.3,29.82,WSW,248,0.0,0.0,93,0.00,,,0.00,Weather View 32 v70,2013-08-19 14:41:00,
2013-08-19 06:46:00,54.5,52.2,29.83,WSW,248,0.0,0.0,92,0.00,,,0.00,Weather View 32 v70,2013-08-19 14:46:00,
2013-08-19 06:51:00,54.3,52.0,29.83,ESE,112,0.0,0.0,92,0.00,,,0.00,Weather View 32 v70,2013-08-19 14:51:00,
2013-08-19 06:56:00,54.3,52.0,29.83,ESE,112,0.0,0.0,92,0.00,,,0.00,Weather View 32 v70,2013-08-19 14:56:00,
2013-08-19 07:01:00,54.3,52.0,29.83,ESE,112,0.0,0.0,92,0.00,,,0.00,Weather View 32 v70,2013-08-19 15:01:00,
2013-08-19 07:06:00,54.3,52.0,29.82,SE,135,0.0,0.0,92,0.00,,,0.00,Weather View 32 v70,2013-08-19 15:06:00,
2013-08-19 07:11:00,54.5,52.2,29.82,ENE,68,0.0,0.0,92,0.00,,,0.00,Weather View 32 v70,2013-08-19 15:11:00,
2013-08-19 07:15:00,54.3,52.0,29.82,SSE,158,0.0,0.0,92,0.00,,,0.00,Weather View 32 v70,2013-08-19 15:15:00,
2013-08-19 07:16:00,54.3,52.0,29.82,SSE,158,0.0,0.0,92,0.00,,,0.00,Weather View 32 v70,2013-08-19 15:16:00,
2013-08-19 07:24:00,54.1,51.9,29.82,SSE,158,0.0,0.0,92,0.00,,,0.00,Weather View 32 v70,2013-08-19 15:24:00,
2013-08-19 07:29:00,54.3,52.0,29.87,WSW,248,0.0,0.0,92,0.00,,,0.00,Weather View 32 v70,2013-08-19 15:29:00,
2013-08-19 07:34:00,54.5,52.2,29.87,SE,135,0.0,0.0,92,0.00,,,0.00,Weather View 32 v70,2013-08-19 15:34:00,
2013-08-19 07:39:00,54.3,52.0,29.87,NNE,22,0.0,0.0,92,0.00,,,0.00,Weather View 32 v70,2013-08-19 15:39:00,
2013-08-19 07:44:00,54.3,52.0,29.87,ESE,112,0.0,0.0,92,0.00,,,0.00,Weather View 32 v70,2013-08-19 15:44:00,
2013-08-19 07:49:00,54.5,52.2,29.90,NE,45,0.0,0.0,92,0.00,,,0.00,Weather View 32 v70,2013-08-19 15:49:00,
2013-08-19 07:54:00,54.3,52.0,29.90,SW,225,0.0,0.0,92,0.00,,,0.00,Weather View 32 v70,2013-08-19 15:54:00,
2013-08-19 07:59:00,54.3,52.0,29.90,NE,45,0.0,0.0,92,0.00,,,0.00,Weather View 32 v70,2013-08-19 15:59:00,
2013-08-19 08:04:00,54.5,51.9,29.90,WSW,248,0.0,0.0,91,0.12,,,0.00,Weather View 32 v70,2013-08-19 16:04:00,
2013-08-19 08:09:00,54.5,51.6,29.91,ENE,68,0.0,0.0,90,0.00,,,0.00,Weather View 32 v70,2013-08-19 16:09:00,
2013-08-19 08:14:00,54.5,51.3,29.91,SSE,158,0.0,0.0,89,0.00,,,0.00,Weather View 32 v70,2013-08-19 16:14:00,
2013-08-19 08:19:00,54.9,51.4,29.91,NE,45,1.0,1.0,88,0.00,,,0.00,Weather View 32 v70,2013-08-19 16:19:00,
2013-08-19 08:25:00,54.7,50.9,29.91,SE,135,1.0,1.0,87,0.00,,,0.00,Weather View 32 v70,2013-08-19 16:25:00,
2013-08-19 08:30:00,55.2,51.4,29.91,East,90,1.0,1.0,87,0.00,,,0.00,Weather View 32 v70,2013-08-19 16:30:00,
2013-08-19 08:35:00,55.2,51.7,29.91,SSE,158,1.0,1.0,88,0.00,,,0.00,Weather View 32 v70,2013-08-19 16:35:00,
2013-08-19 08:40:00,54.9,51.7,29.91,SE,135,1.0,1.0,89,0.00,,,0.00,Weather View 32 v70,2013-08-19 16:40:00,
2013-08-19 08:47:00,54.7,51.5,29.91,SSE,158,1.0,1.0,89,0.00,,,0.00,Weather View 32 v70,2013-08-19 16:47:00,
2013-08-19 08:52:00,54.7,51.8,29.91,SE,135,1.0,1.0,90,0.00,,,0.00,Weather View 32 v70,2013-08-19 16:52:00,
2013-08-19 08:58:00,54.5,51.6,29.91,East,90,1.0,1.0,90,0.03,,,0.03,Weather View 32 v70,2013-08-19 16:58:00,
2013-08-19 09:03:00,54.5,51.6,29.91,ESE,112,1.0,1.0,90,0.03,,,0.03,Weather View 32 v70,2013-08-19 17:03:00,
2013-08-19 09:08:00,54.5,51.6,29.91,ESE,112,1.0,1.0,90,0.03,,,0.03,Weather View 32 v70,2013-08-19 17:08:00,
2013-08-19 09:13:00,54.5,51.6,29.91,SSE,158,1.0,1.0,90,0.03,,,0.03,Weather View 32 v70,2013-08-19 17:13:00,
2013-08-19 09:18:00,54.5,51.6,29.91,East,90,1.0,1.0,90,0.03,,,0.03,Weather View 32 v70,2013-08-19 17:18:00,
2013-08-19 09:23:00,54.9,52.0,29.91,SSE,158,1.0,1.0,90,0.03,,,0.03,Weather View 32 v70,2013-08-19 17:23:00,
2013-08-19 09:28:00,54.7,51.8,29.92,SE,135,1.0,1.0,90,0.03,,,0.03,Weather View 32 v70,2013-08-19 17:28:00,
2013-08-19 09:33:00,54.9,52.0,29.92,WSW,248,1.0,1.0,90,0.03,,,0.03,Weather View 32 v70,2013-08-19 17:33:00,
2013-08-19 09:38:00,54.5,51.6,29.92,ENE,68,1.0,1.0,90,0.03,,,0.03,Weather View 32 v70,2013-08-19 17:38:00,
2013-08-19 09:43:00,54.7,51.8,29.92,SE,135,1.0,1.0,90,0.03,,,0.03,Weather View 32 v70,2013-08-19 17:43:00,
2013-08-19 09:48:00,54.7,51.8,29.92,SSE,158,1.0,1.0,90,0.03,,,0.03,Weather View 32 v70,2013-08-19 17:48:00,
2013-08-19 09:53:00,54.9,52.3,29.92,ENE,68,1.0,1.0,91,0.03,,,0.03,Weather View 32 v70,2013-08-19 17:53:00,
2013-08-19 09:58:00,54.9,52.3,29.92,WNW,292,1.0,1.0,91,0.00,,,0.03,Weather View 32 v70,2013-08-19 17:58:00,
2013-08-19 10:03:00,54.9,52.3,29.92,NNE,22,1.0,1.0,91,0.00,,,0.03,Weather View 32 v70,2013-08-19 18:03:00,
2013-08-19 10:08:00,55.0,52.5,29.92,SE,135,1.0,1.0,91,0.00,,,0.03,Weather View 32 v70,2013-08-19 18:08:00,
2013-08-19 10:13:00,55.2,52.6,29.92,ENE,68,1.0,1.0,91,0.00,,,0.03,Weather View 32 v70,2013-08-19 18:13:00,
2013-08-19 10:18:00,55.0,52.5,29.92,ENE,68,1.0,1.0,91,0.00,,,0.03,Weather View 32 v70,2013-08-19 18:18:00,
2013-08-19 10:23:00,55.2,52.6,29.92,North,0,1.0,1.0,91,0.00,,,0.03,Weather View 32 v70,2013-08-19 18:23:00,
2013-08-19 10:28:00,55.0,52.5,29.93,NNW,338,1.0,1.0,91,0.00,,,0.03,Weather View 32 v70,2013-08-19 18:28:00,
2013-08-19 10:33:00,55.0,52.2,29.93,ESE,112,1.0,1.0,90,0.00,,,0.03,Weather View 32 v70,2013-08-19 18:33:00,
2013-08-19 10:38:00,55.0,51.8,29.93,ESE,112,1.0,1.0,89,0.00,,,0.03,Weather View 32 v70,2013-08-19 18:38:00,
2013-08-19 10:43:00,55.0,51.5,29.93,SE,135,2.0,2.0,88,0.00,,,0.03,Weather View 32 v70,2013-08-19 18:43:00,
2013-08-19 10:48:00,55.0,51.5,29.93,ESE,112,2.0,2.0,88,0.00,,,0.03,Weather View 32 v70,2013-08-19 18:48:00,
2013-08-19 10:53:00,55.0,51.2,29.93,SE,135,2.0,2.0,87,0.00,,,0.03,Weather View 32 v70,2013-08-19 18:53:00,
2013-08-19 10:58:00,55.0,51.2,29.93,SSE,158,2.0,2.0,87,0.00,,,0.03,Weather View 32 v70,2013-08-19 18:58:00,
2013-08-19 11:03:00,55.2,51.4,29.93,SE,135,1.0,2.0,87,0.00,,,0.03,Weather View 32 v70,2013-08-19 19:03:00,
2013-08-19 11:08:00,55.2,51.4,29.93,East,90,2.0,2.0,87,0.00,,,0.03,Weather View 32 v70,2013-08-19 19:08:00,
2013-08-19 11:13:00,55.2,51.4,29.93,ENE,68,2.0,2.0,87,0.00,,,0.03,Weather View 32 v70,2013-08-19 19:13:00,
2013-08-19 11:18:00,55.2,51.7,29.93,SE,135,1.0,2.0,88,0.00,,,0.03,Weather View 32 v70,2013-08-19 19:18:00,
2013-08-19 11:23:00,55.2,51.7,29.93,NNE,22,1.0,2.0,88,0.00,,,0.03,Weather View 32 v70,2013-08-19 19:23:00,
2013-08-19 11:28:00,55.6,52.1,29.93,East,90,1.0,2.0,88,0.00,,,0.03,Weather View 32 v70,2013-08-19 19:28:00,
2013-08-19 11:33:00,55.6,51.8,29.93,South,180,1.0,2.0,87,0.00,,,0.03,Weather View 32 v70,2013-08-19 19:33:00,
2013-08-19 11:38:00,55.4,51.6,29.93,South,180,1.0,2.0,87,0.00,,,0.03,Weather View 32 v70,2013-08-19 19:38:00,
2013-08-19 11:43:00,55.6,51.8,29.93,SE,135,1.0,2.0,87,0.00,,,0.03,Weather View 32 v70,2013-08-19 19:43:00,
2013-08-19 11:48:00,55.6,51.8,29.93,ENE,68,1.0,2.0,87,0.00,,,0.03,Weather View 32 v70,2013-08-19 19:48:00,
2013-08-19 11:53:00,55.8,51.9,29.93,NW,315,1.0,2.0,87,0.00,,,0.03,Weather View 32 v70,2013-08-19 19:53:00,
2013-08-19 11:58:00,55.9,52.1,29.93,SE,135,1.0,2.0,87,0.00,,,0.03,Weather View 32 v70,2013-08-19 19:58:00,
2013-08-19 12:03:00,56.1,52.3,29.93,SE,135,1.0,2.0,87,0.00,,,0.03,Weather View 32 v70,2013-08-19 20:03:00,
2013-08-19 12:08:00,56.1,52.3,29.94,SE,135,1.0,2.0,87,0.00,,,0.03,Weather View 32 v70,2013-08-19 20:08:00,
2013-08-19 12:13:00,56.1,52.3,29.94,SE,135,1.0,2.0,87,0.00,,,0.03,Weather View 32 v70,2013-08-19 20:13:00,
2013-08-19 12:18:00,56.1,52.0,29.94,SE,135,1.0,1.0,86,0.00,,,0.03,Weather View 32 v70,2013-08-19 20:18:00,
2013-08-19 12:23:00,56.3,52.2,29.94,South,180,1.0,1.0,86,0.00,,,0.03,Weather View 32 v70,2013-08-19 20:23:00,
2013-08-19 12:28:00,56.3,52.2,29.94,ESE,112,1.0,1.0,86,0.00,,,0.03,Weather View 32 v70,2013-08-19 20:28:00,
2013-08-19 12:33:00,56.5,52.3,29.94,NNE,22,1.0,1.0,86,0.00,,,0.03,Weather View 32 v70,2013-08-19 20:33:00,
2013-08-19 12:38:00,56.7,52.5,29.94,ESE,112,1.0,1.0,86,0.00,,,0.03,Weather View 32 v70,2013-08-19 20:38:00,
2013-08-19 12:43:00,56.5,52.3,29.94,NE,45,1.0,1.0,86,0.00,,,0.03,Weather View 32 v70,2013-08-19 20:43:00,
2013-08-19 12:48:00,56.5,52.3,29.94,SSE,158,1.0,1.0,86,0.00,,,0.03,Weather View 32 v70,2013-08-19 20:48:00,
2013-08-19 12:53:00,56.5,52.0,29.94,ESE,112,1.0,1.0,85,0.00,,,0.03,Weather View 32 v70,2013-08-19 20:53:00,
2013-08-19 12:58:00,56.7,52.5,29.94,ESE,112,1.0,1.0,86,0.00,,,0.03,Weather View 32 v70,2013-08-19 20:58:00,
2013-08-19 13:03:00,56.8,52.4,29.94,ENE,68,1.0,1.0,85,0.00,,,0.03,Weather View 32 v70,2013-08-19 21:03:00,
2013-08-19 13:08:00,56.7,52.2,29.94,SE,135,1.0,1.0,85,0.00,,,0.03,Weather View 32 v70,2013-08-19 21:08:00,
2013-08-19 13:13:00,56.8,52.4,29.94,SE,135,1.0,1.0,85,0.00,,,0.03,Weather View 32 v70,2013-08-19 21:13:00,
2013-08-19 13:18:00,57.0,52.9,29.94,South,180,1.0,1.0,86,0.00,,,0.03,Weather View 32 v70,2013-08-19 21:18:00,
2013-08-19 13:23:00,56.8,52.7,29.94,NE,45,1.0,1.0,86,0.00,,,0.03,Weather View 32 v70,2013-08-19 21:23:00,
2013-08-19 13:28:00,56.8,52.7,29.94,ESE,112,1.0,1.0,86,0.00,,,0.03,Weather View 32 v70,2013-08-19 21:28:00,
2013-08-19 13:33:00,56.8,52.7,29.94,SE,135,1.0,1.0,86,0.00,,,0.03,Weather View 32 v70,2013-08-19 21:33:00,
2013-08-19 13:38:00,57.0,53.2,29.94,South,180,1.0,1.0,87,0.00,,,0.03,Weather View 32 v70,2013-08-19 21:38:00,
2013-08-19 13:43:00,56.7,52.8,29.94,WSW,248,1.0,1.0,87,0.00,,,0.03,Weather View 32 v70,2013-08-19 21:43:00,
2013-08-19 13:48:00,56.5,53.0,29.96,ENE,68,1.0,1.0,88,0.00,,,0.03,Weather View 32 v70,2013-08-19 21:48:00,
2013-08-19 13:53:00,56.5,53.3,29.96,ESE,112,1.0,1.0,89,0.00,,,0.03,Weather View 32 v70,2013-08-19 21:53:00,
2013-08-19 13:58:00,56.5,53.3,29.96,SE,135,1.0,1.0,89,0.00,,,0.03,Weather View 32 v70,2013-08-19 21:58:00,
2013-08-19 14:03:00,56.5,53.3,29.96,SE,135,1.0,1.0,89,0.00,,,0.03,Weather View 32 v70,2013-08-19 22:03:00,
2013-08-19 14:08:00,55.9,53.3,29.96,SE,135,2.0,2.0,91,0.03,,,0.06,Weather View 32 v70,2013-08-19 22:08:00,
2013-08-19 14:13:00,55.9,53.3,29.96,East,90,2.0,2.0,91,0.03,,,0.06,Weather View 32 v70,2013-08-19 22:13:00,
2013-08-19 14:15:00,55.9,53.3,29.96,SE,135,2.0,2.0,91,0.03,,,0.06,Weather View 32 v70,2013-08-19 22:15:00,
2013-08-19 14:16:00,55.9,53.3,29.96,SE,135,2.0,2.0,91,0.03,,,0.06,Weather View 32 v70,2013-08-19 22:16:00,
2013-08-19 14:17:00,55.8,53.2,29.96,SE,135,2.0,2.0,91,0.03,,,0.06,Weather View 32 v70,2013-08-19 22:17:00,
2013-08-19 14:18:00,55.8,53.2,29.96,ESE,112,1.0,2.0,91,0.03,,,0.06,Weather View 32 v70,2013-08-19 22:18:00,
2013-08-19 14:19:00,55.9,53.3,29.96,East,90,2.0,2.0,91,0.03,,,0.06,Weather View 32 v70,2013-08-19 22:19:00,
2013-08-19 14:20:00,55.8,53.2,29.96,South,180,1.0,2.0,91,0.03,,,0.06,Weather View 32 v70,2013-08-19 22:20:00,
2013-08-19 14:21:00,55.8,53.2,29.96,South,180,1.0,2.0,91,0.03,,,0.06,Weather View 32 v70,2013-08-19 22:21:00,
2013-08-19 14:22:00,55.8,53.2,29.96,NW,315,1.0,2.0,91,0.06,,,0.09,Weather View 32 v70,2013-08-19 22:22:00,
2013-08-19 14:24:00,55.9,53.3,29.96,SE,135,2.0,2.0,91,0.03,,,0.06,Weather View 32 v70,2013-08-19 22:24:00,
2013-08-19 14:30:00,55.8,53.2,29.96,SSE,158,1.0,2.0,91,0.06,,,0.09,Weather View 32 v70,2013-08-19 22:30:00,
2013-08-19 14:35:00,55.9,53.6,29.96,SSE,158,1.0,2.0,92,0.06,,,0.09,Weather View 32 v70,2013-08-19 22:35:00,
2013-08-19 14:40:00,56.1,53.8,29.96,SE,135,1.0,2.0,92,0.09,,,0.12,Weather View 32 v70,2013-08-19 22:40:00,
2013-08-19 14:45:00,56.3,54.0,29.96,SE,135,0.0,2.0,92,0.09,,,0.12,Weather View 32 v70,2013-08-19 22:45:00,
2013-08-19 14:50:00,56.3,54.0,29.96,WSW,248,1.0,2.0,92,0.09,,,0.12,Weather View 32 v70,2013-08-19 22:50:00,
2013-08-19 14:55:00,56.1,53.8,29.96,East,90,1.0,2.0,92,0.09,,,0.12,Weather View 32 v70,2013-08-19 22:55:00,
2013-08-19 15:00:00,56.1,53.8,29.96,SSE,158,1.0,2.0,92,0.06,,,0.12,Weather View 32 v70,2013-08-19 23:00:00,
2013-08-19 15:05:00,56.5,54.2,29.96,South,180,1.0,2.0,92,0.06,,,0.12,Weather View 32 v70,2013-08-19 23:05:00,
2013-08-19 15:10:00,56.5,54.2,29.96,SSE,158,1.0,2.0,92,0.06,,,0.12,Weather View 32 v70,2013-08-19 23:10:00,
2013-08-19 15:15:00,56.5,54.2,29.96,ESE,112,0.0,2.0,92,0.06,,,0.12,Weather View 32 v70,2013-08-19 23:15:00,
2013-08-19 15:20:00,56.7,54.4,29.96,SE,135,0.0,1.0,92,0.06,,,0.12,Weather View 32 v70,2013-08-19 23:20:00,
2013-08-19 15:25:00,56.7,54.1,29.96,SE,135,1.0,1.0,91,0.03,,,0.12,Weather View 32 v70,2013-08-19 23:25:00,
2013-08-19 15:30:00,56.5,54.2,29.96,ESE,112,1.0,1.0,92,0.03,,,0.12,Weather View 32 v70,2013-08-19 23:30:00,
2013-08-19 15:35:00,56.5,53.9,29.96,SE,135,1.0,1.0,91,0.00,,,0.12,Weather View 32 v70,2013-08-19 23:35:00,
2013-08-19 15:40:00,56.3,53.7,29.96,SW,225,1.0,1.0,91,0.00,,,0.12,Weather View 32 v70,2013-08-19 23:40:00,
2013-08-19 15:45:00,56.3,53.7,29.96,SSE,158,2.0,2.0,91,0.00,,,0.12,Weather View 32 v70,2013-08-19 23:45:00,
2013-08-19 15:50:00,56.3,53.7,29.96,SE,135,1.0,2.0,91,0.00,,,0.12,Weather View 32 v70,2013-08-19 23:50:00,
2013-08-19 15:55:00,56.1,53.8,29.96,WNW,292,1.0,2.0,92,0.00,,,0.12,Weather View 32 v70,2013-08-19 23:55:00,
2013-08-19 16:00:00,56.3,54.0,29.96,NNE,22,1.0,2.0,92,0.00,,,0.12,Weather View 32 v70,2013-08-20 00:00:00,
2013-08-19 16:05:00,56.1,53.8,29.96,SE,135,1.0,2.0,92,0.00,,,0.12,Weather View 32 v70,2013-08-20 00:05:00,
2013-08-19 16:10:00,55.9,53.6,29.96,South,180,1.0,2.0,92,0.00,,,0.12,Weather View 32 v70,2013-08-20 00:10:00,
2013-08-19 16:15:00,55.9,53.6,29.96,SE,135,1.0,2.0,92,0.00,,,0.12,Weather View 32 v70,2013-08-20 00:15:00,
2013-08-19 16:20:00,55.9,53.6,29.96,ESE,112,1.0,2.0,92,0.00,,,0.12,Weather View 32 v70,2013-08-20 00:20:00,
2013-08-19 16:25:00,55.9,53.6,29.97,SSE,158,1.0,2.0,92,0.00,,,0.12,Weather View 32 v70,2013-08-20 00:25:00,
2013-08-19 16:30:00,55.9,53.6,29.97,ESE,112,2.0,2.0,92,0.00,,,0.12,Weather View 32 v70,2013-08-20 00:30:00,
2013-08-19 16:35:00,56.3,54.0,29.97,ENE,68,1.0,2.0,92,0.00,,,0.12,Weather View 32 v70,2013-08-20 00:35:00,
2013-08-19 16:40:00,56.3,54.0,29.97,NNE,22,1.0,2.0,92,0.00,,,0.12,Weather View 32 v70,2013-08-20 00:40:00,
2013-08-19 16:45:00,56.5,54.2,29.96,NNW,338,1.0,2.0,92,0.00,,,0.12,Weather View 32 v70,2013-08-20 00:45:00,
2013-08-19 16:50:00,56.5,54.2,29.96,NNE,22,1.0,2.0,92,0.03,,,0.15,Weather View 32 v70,2013-08-20 00:50:00,
2013-08-19 16:55:00,56.5,54.2,29.96,SE,135,1.0,2.0,92,0.03,,,0.15,Weather View 32 v70,2013-08-20 00:55:00,
2013-08-19 17:00:00,56.3,54.0,29.96,ESE,112,1.0,2.0,92,0.03,,,0.15,Weather View 32 v70,2013-08-20 01:00:00,
2013-08-19 17:05:00,56.3,54.0,29.96,NNE,22,1.0,2.0,92,0.03,,,0.15,Weather View 32 v70,2013-08-20 01:05:00,
2013-08-19 17:10:00,56.5,54.2,29.96,NNW,338,1.0,2.0,92,0.03,,,0.15,Weather View 32 v70,2013-08-20 01:10:00,
2013-08-19 17:15:00,56.3,54.0,29.96,ENE,68,1.0,2.0,92,0.03,,,0.15,Weather View 32 v70,2013-08-20 01:15:00,
2013-08-19 17:20:00,56.3,54.0,29.96,ENE,68,0.0,2.0,92,0.03,,,0.15,Weather View 32 v70,2013-08-20 01:20:00,
2013-08-19 17:25:00,56.3,54.0,29.97,ESE,112,1.0,2.0,92,0.03,,,0.15,Weather View 32 v70,2013-08-20 01:25:00,
2013-08-19 17:30:00,56.5,54.2,29.97,ENE,68,1.0,2.0,92,0.03,,,0.15,Weather View 32 v70,2013-08-20 01:30:00,
2013-08-19 17:35:00,56.8,54.2,29.97,ENE,68,1.0,2.0,91,0.03,,,0.15,Weather View 32 v70,2013-08-20 01:35:00,
2013-08-19 17:40:00,56.7,54.1,29.97,NE,45,1.0,1.0,91,0.03,,,0.15,Weather View 32 v70,2013-08-20 01:40:00,
2013-08-19 17:45:00,56.5,53.9,29.96,SSW,202,1.0,1.0,91,0.03,,,0.15,Weather View 32 v70,2013-08-20 01:45:00,
2013-08-19 17:50:00,56.5,53.9,29.96,ESE,112,1.0,1.0,91,0.00,,,0.15,Weather View 32 v70,2013-08-20 01:50:00,
2013-08-19 17:55:00,56.3,53.7,29.96,SE,135,1.0,1.0,91,0.00,,,0.15,Weather View 32 v70,2013-08-20 01:55:00,
2013-08-19 18:00:00,56.3,53.7,29.96,ESE,112,1.0,1.0,91,0.00,,,0.15,Weather View 32 v70,2013-08-20 02:00:00,
2013-08-19 18:05:00,56.3,53.7,29.97,NE,45,1.0,1.0,91,0.00,,,0.15,Weather View 32 v70,2013-08-20 02:05:00,
2013-08-19 18:10:00,56.3,53.7,29.97,NNE,22,1.0,1.0,91,0.00,,,0.15,Weather View 32 v70,2013-08-20 02:10:00,
2013-08-19 18:15:00,56.3,53.7,29.97,NW,315,1.0,1.0,91,0.00,,,0.15,Weather View 32 v70,2013-08-20 02:15:00,
2013-08-19 18:20:00,56.1,53.5,29.97,NNW,338,1.0,1.0,91,0.00,,,0.15,Weather View 32 v70,2013-08-20 02:20:00,
2013-08-19 18:25:00,56.1,53.5,29.96,ESE,112,1.0,1.0,91,0.00,,,0.15,Weather View 32 v70,2013-08-20 02:25:00,
2013-08-19 18:30:00,56.3,53.7,29.96,East,90,1.0,1.0,91,0.00,,,0.15,Weather View 32 v70,2013-08-20 02:30:00,
2013-08-19 18:35:00,56.5,53.9,29.96,SSE,158,1.0,1.0,91,0.00,,,0.15,Weather View 32 v70,2013-08-20 02:35:00,
2013-08-19 18:40:00,57.0,54.4,29.96,East,90,1.0,1.0,91,0.00,,,0.15,Weather View 32 v70,2013-08-20 02:40:00,
2013-08-19 18:45:00,57.0,54.1,29.97,NE,45,1.0,1.0,90,0.00,,,0.15,Weather View 32 v70,2013-08-20 02:45:00,
2013-08-19 18:50:00,57.0,54.1,29.97,ESE,112,1.0,1.0,90,0.00,,,0.15,Weather View 32 v70,2013-08-20 02:50:00,
2013-08-19 18:55:00,57.0,54.1,29.97,NE,45,1.0,1.0,90,0.00,,,0.15,Weather View 32 v70,2013-08-20 02:55:00,
2013-08-19 19:00:00,56.8,53.9,29.97,SE,135,1.0,1.0,90,0.00,,,0.15,Weather View 32 v70,2013-08-20 03:00:00,
2013-08-19 19:05:00,56.5,53.6,29.97,SSE,158,2.0,2.0,90,0.00,,,0.15,Weather View 32 v70,2013-08-20 03:05:00,
2013-08-19 19:10:00,56.5,53.6,29.97,ENE,68,2.0,2.0,90,0.00,,,0.15,Weather View 32 v70,2013-08-20 03:10:00,
2013-08-19 19:15:00,56.3,53.4,29.97,ESE,112,2.0,2.0,90,0.00,,,0.15,Weather View 32 v70,2013-08-20 03:15:00,
2013-08-19 19:20:00,55.9,53.0,29.97,East,90,1.0,2.0,90,0.00,,,0.15,Weather View 32 v70,2013-08-20 03:20:00,
2013-08-19 19:25:00,55.8,52.9,29.97,ENE,68,1.0,2.0,90,0.00,,,0.15,Weather View 32 v70,2013-08-20 03:25:00,
2013-08-19 19:30:00,55.8,52.9,29.97,East,90,0.0,2.0,90,0.00,,,0.15,Weather View 32 v70,2013-08-20 03:30:00,
2013-08-19 19:35:00,55.8,52.9,29.97,NE,45,0.0,2.0,90,0.00,,,0.15,Weather View 32 v70,2013-08-20 03:35:00,
2013-08-19 19:40:00,55.9,53.0,29.97,NNE,22,0.0,2.0,90,0.00,,,0.15,Weather View 32 v70,2013-08-20 03:40:00,
2013-08-19 19:45:00,55.9,53.3,29.97,South,180,0.0,2.0,91,0.00,,,0.15,Weather View 32 v70,2013-08-20 03:45:00,
2013-08-19 19:50:00,55.9,53.3,29.97,SSE,158,0.0,2.0,91,0.00,,,0.15,Weather View 32 v70,2013-08-20 03:50:00,
2013-08-19 19:55:00,55.9,53.3,29.97,NE,45,0.0,2.0,91,0.00,,,0.15,Weather View 32 v70,2013-08-20 03:55:00,
2013-08-19 20:00:00,55.8,53.2,29.97,ENE,68,0.0,2.0,91,0.00,,,0.15,Weather View 32 v70,2013-08-20 04:00:00,
2013-08-19 20:01:00,55.8,53.2,29.97,ENE,68,0.0,2.0,91,0.00,,,0.15,Weather View 32 v70,2013-08-20 04:01:00,
2013-08-19 20:06:00,55.8,53.2,29.96,NW,315,0.0,2.0,91,0.00,,,0.15,Weather View 32 v70,2013-08-20 04:06:00,
2013-08-19 20:11:00,55.8,53.2,29.96,ESE,112,1.0,2.0,91,0.00,,,0.15,Weather View 32 v70,2013-08-20 04:11:00,
2013-08-19 20:16:00,55.8,53.2,29.96,NE,45,1.0,2.0,91,0.00,,,0.15,Weather View 32 v70,2013-08-20 04:16:00,
2013-08-19 20:21:00,55.8,53.2,29.96,ENE,68,0.0,1.0,91,0.00,,,0.15,Weather View 32 v70,2013-08-20 04:21:00,
2013-08-19 20:26:00,55.6,53.0,29.97,South,180,1.0,1.0,91,0.00,,,0.15,Weather View 32 v70,2013-08-20 04:26:00,
2013-08-19 20:31:00,55.6,53.0,29.97,NE,45,1.0,1.0,91,0.00,,,0.15,Weather View 32 v70,2013-08-20 04:31:00,
2013-08-19 20:36:00,55.6,53.0,29.97,NNW,338,0.0,1.0,91,0.00,,,0.15,Weather View 32 v70,2013-08-20 04:36:00,
2013-08-19 20:41:00,55.6,53.0,29.97,West,270,0.0,1.0,91,0.00,,,0.15,Weather View 32 v70,2013-08-20 04:41:00,
2013-08-19 20:46:00,55.4,52.8,29.98,WSW,248,0.0,1.0,91,0.00,,,0.15,Weather View 32 v70,2013-08-20 04:46:00,
2013-08-19 20:51:00,55.4,53.1,29.98,WSW,248,0.0,1.0,92,0.00,,,0.15,Weather View 32 v70,2013-08-20 04:51:00,
2013-08-19 20:56:00,55.6,53.3,29.98,WSW,248,0.0,1.0,92,0.00,,,0.15,Weather View 32 v70,2013-08-20 04:56:00,
2013-08-19 21:01:00,55.4,53.1,29.98,SE,135,0.0,1.0,92,0.00,,,0.15,Weather View 32 v70,2013-08-20 05:01:00,
2013-08-19 21:06:00,55.2,52.9,29.98,SW,225,0.0,1.0,92,0.00,,,0.15,Weather View 32 v70,2013-08-20 05:06:00,
2013-08-19 21:11:00,55.2,52.9,29.98,West,270,0.0,1.0,92,0.00,,,0.15,Weather View 32 v70,2013-08-20 05:11:00,
2013-08-19 21:16:00,55.2,52.9,29.98,WSW,248,0.0,1.0,92,0.00,,,0.15,Weather View 32 v70,2013-08-20 05:16:00,
2013-08-19 21:21:00,55.2,52.9,29.98,South,180,1.0,1.0,92,0.00,,,0.15,Weather View 32 v70,2013-08-20 05:21:00,
2013-08-19 21:26:00,55.0,52.8,29.99,South,180,0.0,1.0,92,0.00,,,0.15,Weather View 32 v70,2013-08-20 05:26:00,
2013-08-19 21:31:00,55.0,52.8,29.99,SE,135,0.0,1.0,92,0.00,,,0.15,Weather View 32 v70,2013-08-20 05:31:00,
2013-08-19 21:36:00,54.9,52.6,29.99,SW,225,0.0,1.0,92,0.00,,,0.15,Weather View 32 v70,2013-08-20 05:36:00,
2013-08-19 21:41:00,54.9,52.6,29.99,SW,225,0.0,1.0,92,0.00,,,0.15,Weather View 32 v70,2013-08-20 05:41:00,
2013-08-19 21:46:00,54.7,52.7,29.97,South,180,0.0,1.0,93,0.00,,,0.15,Weather View 32 v70,2013-08-20 05:46:00,
2013-08-19 21:51:00,54.9,52.9,29.97,South,180,0.0,1.0,93,0.00,,,0.15,Weather View 32 v70,2013-08-20 05:51:00,
2013-08-19 21:56:00,54.5,52.5,29.97,South,180,0.0,1.0,93,0.00,,,0.15,Weather View 32 v70,2013-08-20 05:56:00,
2013-08-19 22:01:00,54.5,52.5,29.97,SE,135,0.0,1.0,93,0.00,,,0.15,Weather View 32 v70,2013-08-20 06:01:00,
2013-08-19 22:08:00,54.3,52.3,29.95,SE,135,0.0,1.0,93,0.00,,,0.15,Weather View 32 v70,2013-08-20 06:08:00,
2013-08-19 22:13:00,54.5,52.5,29.95,SW,225,0.0,1.0,93,0.00,,,0.15,Weather View 32 v70,2013-08-20 06:13:00,
2013-08-19 22:14:00,54.5,52.5,29.95,SW,225,0.0,1.0,93,0.00,,,0.15,Weather View 32 v70,2013-08-20 06:14:00,
2013-08-19 22:15:00,54.5,52.5,29.95,SW,225,0.0,1.0,93,0.00,,,0.15,Weather View 32 v70,2013-08-20 06:15:00,
2013-08-19 22:16:00,54.5,52.5,29.95,SW,225,0.0,1.0,93,0.00,,,0.15,Weather View 32 v70,2013-08-20 06:16:00,
2013-08-19 22:17:00,54.5,52.5,29.95,SW,225,0.0,1.0,93,0.00,,,0.15,Weather View 32 v70,2013-08-20 06:17:00,
2013-08-19 22:18:00,54.5,52.5,29.95,SW,225,0.0,1.0,93,0.00,,,0.15,Weather View 32 v70,2013-08-20 06:18:00,
2013-08-19 22:19:00,54.3,52.3,29.95,SW,225,0.0,1.0,93,0.00,,,0.15,Weather View 32 v70,2013-08-20 06:19:00,
2013-08-19 22:20:00,54.3,52.3,29.95,SW,225,0.0,1.0,93,0.00,,,0.15,Weather View 32 v70,2013-08-20 06:20:00,
2013-08-19 22:21:00,54.1,52.2,29.95,SW,225,0.0,1.0,93,0.00,,,0.15,Weather View 32 v70,2013-08-20 06:21:00,
2013-08-19 22:22:00,54.1,52.2,29.95,SW,225,0.0,1.0,93,0.00,,,0.15,Weather View 32 v70,2013-08-20 06:22:00,
2013-08-19 22:25:00,54.0,52.0,29.94,SW,225,0.0,0.0,93,0.00,,,0.15,Weather View 32 v70,2013-08-20 06:25:00,
2013-08-19 22:31:00,54.3,52.3,29.95,SW,225,0.0,1.0,93,0.00,,,0.15,Weather View 32 v70,2013-08-20 06:31:00,
2013-08-19 22:36:00,54.1,52.2,29.94,ENE,68,0.0,0.0,93,0.00,,,0.15,Weather View 32 v70,2013-08-20 06:36:00,
2013-08-19 22:41:00,54.0,52.0,29.94,ENE,68,0.0,0.0,93,0.00,,,0.15,Weather View 32 v70,2013-08-20 06:41:00,
2013-08-19 22:46:00,53.8,51.8,29.93,ENE,68,0.0,0.0,93,0.00,,,0.15,Weather View 32 v70,2013-08-20 06:46:00,
2013-08-19 22:51:00,53.8,52.1,29.93,SSE,158,0.0,0.0,94,-0.03,,,0.15,Weather View 32 v70,2013-08-20 06:51:00,
2013-08-19 22:56:00,53.6,51.6,29.93,South,180,0.0,0.0,93,0.00,,,0.15,Weather View 32 v70,2013-08-20 06:56:00,
2013-08-19 23:01:00,53.6,51.9,29.93,ESE,112,0.0,0.0,94,0.00,,,0.15,Weather View 32 v70,2013-08-20 07:01:00,
2013-08-19 23:06:00,53.6,51.9,29.93,ESE,112,0.0,0.0,94,0.00,,,0.15,Weather View 32 v70,2013-08-20 07:06:00,
2013-08-19 23:11:00,53.6,51.9,29.93,SSW,202,0.0,0.0,94,0.00,,,0.15,Weather View 32 v70,2013-08-20 07:11:00,
2013-08-19 23:16:00,53.8,52.1,29.93,SSW,202,0.0,0.0,94,0.00,,,0.15,Weather View 32 v70,2013-08-20 07:16:00,
2013-08-19 23:21:00,53.6,51.9,29.93,West,270,0.0,0.0,94,0.00,,,0.15,Weather View 32 v70,2013-08-20 07:21:00,
2013-08-19 23:26:00,53.6,51.9,29.93,West,270,0.0,0.0,94,0.00,,,0.15,Weather View 32 v70,2013-08-20 07:26:00,
2013-08-19 23:31:00,53.8,52.1,29.93,West,270,0.0,0.0,94,0.00,,,0.15,Weather View 32 v70,2013-08-20 07:31:00,
2013-08-19 23:36:00,53.8,52.1,29.93,WSW,248,1.0,1.0,94,0.00,,,0.15,Weather View 32 v70,2013-08-20 07:36:00,
2013-08-19 23:41:00,53.6,51.9,29.93,NW,315,0.0,1.0,94,0.00,,,0.15,Weather View 32 v70,2013-08-20 07:41:00,
2013-08-19 23:46:00,53.8,52.1,29.94,West,270,0.0,1.0,94,0.00,,,0.15,Weather View 32 v70,2013-08-20 07:46:00,
2013-08-19 23:51:00,53.8,52.1,29.94,West,270,1.0,1.0,94,0.00,,,0.15,Weather View 32 v70,2013-08-20 07:51:00,
2013-08-19 23:56:00,53.6,51.9,29.94,WNW,292,1.0,1.0,94,0.00,,,0.15,Weather View 32 v70,2013-08-20 07:56:00,